sensor_id;sensor_type;location;lat;lon;timestamp;pressure;altitude;pressure_sealevel;temperature;humidity
75317;BME280;63913;51.492;10.368;2024-03-22T00:00:03;98976.22;;;5.84;98.64
75317;BME280;63913;51.492;10.368;2024-03-22T00:02:38;98972.34;;;5.91;98.94
75317;BME280;63913;51.492;10.368;2024-03-22T00:05:04;98965.88;;;5.97;99.24
75317;BME280;63913;51.492;10.368;2024-03-22T00:07:29;98960.97;;;6.02;99.04
75317;BME280;63913;51.492;10.368;2024-03-22T00:09:55;98964.53;;;6.05;99.36
75317;BME280;63913;51.492;10.368;2024-03-22T00:12:20;98952.06;;;6.11;99.30
75317;BME280;63913;51.492;10.368;2024-03-22T00:14:45;98949.88;;;6.19;99.09
75317;BME280;63913;51.492;10.368;2024-03-22T00:17:13;98945.03;;;6.25;98.91
75317;BME280;63913;51.492;10.368;2024-03-22T00:19:38;98942.63;;;6.28;98.74
75317;BME280;63913;51.492;10.368;2024-03-22T00:22:04;98936.88;;;6.32;99.31
75317;BME280;63913;51.492;10.368;2024-03-22T00:24:29;98933.00;;;6.40;99.29
75317;BME280;63913;51.492;10.368;2024-03-22T00:26:54;98932.38;;;6.46;99.23
75317;BME280;63913;51.492;10.368;2024-03-22T00:29:20;98924.19;;;6.53;98.37
75317;BME280;63913;51.492;10.368;2024-03-22T00:31:45;98917.06;;;6.65;97.11
75317;BME280;63913;51.492;10.368;2024-03-22T00:34:11;98913.03;;;6.70;97.53
75317;BME280;63913;51.492;10.368;2024-03-22T00:36:36;98915.78;;;6.75;97.19
75317;BME280;63913;51.492;10.368;2024-03-22T00:39:02;98909.94;;;6.77;97.46
75317;BME280;63913;51.492;10.368;2024-03-22T00:41:28;98916.72;;;6.77;97.15
75317;BME280;63913;51.492;10.368;2024-03-22T00:43:53;98915.06;;;6.77;97.13
75317;BME280;63913;51.492;10.368;2024-03-22T00:46:19;98921.91;;;6.78;97.14
75317;BME280;63913;51.492;10.368;2024-03-22T00:48:44;98916.06;;;6.81;97.02
75317;BME280;63913;51.492;10.368;2024-03-22T00:51:09;98908.34;;;6.79;97.39
75317;BME280;63913;51.492;10.368;2024-03-22T00:53:35;98904.97;;;6.80;96.92
75317;BME280;63913;51.492;10.368;2024-03-22T00:56:00;98905.84;;;6.81;97.44
75317;BME280;63913;51.492;10.368;2024-03-22T00:58:29;98893.88;;;6.80;96.98
75317;BME280;63913;51.492;10.368;2024-03-22T01:00:55;98890.63;;;6.84;96.93
75317;BME280;63913;51.492;10.368;2024-03-22T01:03:21;98900.06;;;6.85;96.69
75317;BME280;63913;51.492;10.368;2024-03-22T01:05:46;98889.97;;;6.88;96.30
75317;BME280;63913;51.492;10.368;2024-03-22T01:08:12;98880.56;;;6.87;95.96
75317;BME280;63913;51.492;10.368;2024-03-22T01:10:37;98875.44;;;6.87;95.88
75317;BME280;63913;51.492;10.368;2024-03-22T01:13:02;98879.78;;;6.89;96.04
75317;BME280;63913;51.492;10.368;2024-03-22T01:15:28;98876.31;;;6.87;95.41
75317;BME280;63913;51.492;10.368;2024-03-22T01:17:53;98884.97;;;6.91;94.49
75317;BME280;63913;51.492;10.368;2024-03-22T01:20:19;98887.91;;;7.00;93.64
75317;BME280;63913;51.492;10.368;2024-03-22T01:22:44;98882.69;;;6.97;93.91
75317;BME280;63913;51.492;10.368;2024-03-22T01:25:09;98877.59;;;6.97;93.34
75317;BME280;63913;51.492;10.368;2024-03-22T01:27:35;98882.56;;;6.94;93.51
75317;BME280;63913;51.492;10.368;2024-03-22T01:30:01;98874.97;;;6.96;93.11
75317;BME280;63913;51.492;10.368;2024-03-22T01:32:26;98880.41;;;6.84;93.70
75317;BME280;63913;51.492;10.368;2024-03-22T01:34:52;98886.47;;;6.86;93.90
75317;BME280;63913;51.492;10.368;2024-03-22T01:37:17;98888.88;;;6.83;93.39
75317;BME280;63913;51.492;10.368;2024-03-22T01:39:42;98886.78;;;6.74;94.12
75317;BME280;63913;51.492;10.368;2024-03-22T01:42:08;98880.47;;;6.66;93.87
75317;BME280;63913;51.492;10.368;2024-03-22T01:44:33;98879.22;;;6.57;94.32
75317;BME280;63913;51.492;10.368;2024-03-22T01:46:59;98871.50;;;6.55;94.07
75317;BME280;63913;51.492;10.368;2024-03-22T01:49:27;98879.97;;;6.54;94.67
75317;BME280;63913;51.492;10.368;2024-03-22T01:51:53;98877.19;;;6.49;94.88
75317;BME280;63913;51.492;10.368;2024-03-22T01:54:20;98868.28;;;6.40;95.05
75317;BME280;63913;51.492;10.368;2024-03-22T01:56:45;98865.56;;;6.37;95.33
75317;BME280;63913;51.492;10.368;2024-03-22T01:59:12;98867.19;;;6.35;95.88
75317;BME280;63913;51.492;10.368;2024-03-22T02:01:38;98866.97;;;6.30;95.88
75317;BME280;63913;51.492;10.368;2024-03-22T02:04:03;98866.19;;;6.31;95.92
75317;BME280;63913;51.492;10.368;2024-03-22T02:06:29;98854.06;;;6.27;96.26
75317;BME280;63913;51.492;10.368;2024-03-22T02:08:55;98859.78;;;6.22;97.36
75317;BME280;63913;51.492;10.368;2024-03-22T02:11:21;98857.34;;;6.25;96.85
75317;BME280;63913;51.492;10.368;2024-03-22T02:13:46;98859.91;;;6.25;96.89
75317;BME280;63913;51.492;10.368;2024-03-22T02:16:12;98852.31;;;6.26;97.42
75317;BME280;63913;51.492;10.368;2024-03-22T02:18:37;98849.03;;;6.29;97.14
75317;BME280;63913;51.492;10.368;2024-03-22T02:21:03;98845.69;;;6.30;97.50
75317;BME280;63913;51.492;10.368;2024-03-22T02:23:34;98844.13;;;6.33;97.44
75317;BME280;63913;51.492;10.368;2024-03-22T02:26:01;98841.56;;;6.33;98.05
75317;BME280;63913;51.492;10.368;2024-03-22T02:28:27;98838.34;;;6.37;97.96
75317;BME280;63913;51.492;10.368;2024-03-22T02:30:52;98830.88;;;6.42;98.17
75317;BME280;63913;51.492;10.368;2024-03-22T02:33:18;98826.06;;;6.48;97.98
75317;BME280;63913;51.492;10.368;2024-03-22T02:35:46;98816.91;;;6.53;98.29
75317;BME280;63913;51.492;10.368;2024-03-22T02:38:11;98801.84;;;6.59;97.82
75317;BME280;63913;51.492;10.368;2024-03-22T02:40:37;98796.97;;;6.65;97.67
75317;BME280;63913;51.492;10.368;2024-03-22T02:43:02;98798.06;;;6.70;97.15
75317;BME280;63913;51.492;10.368;2024-03-22T02:45:30;98794.81;;;6.74;97.27
75317;BME280;63913;51.492;10.368;2024-03-22T02:47:56;98794.94;;;6.77;97.08
75317;BME280;63913;51.492;10.368;2024-03-22T02:50:21;98786.78;;;6.86;95.80
75317;BME280;63913;51.492;10.368;2024-03-22T02:52:48;98791.22;;;6.90;95.68
75317;BME280;63913;51.492;10.368;2024-03-22T02:55:14;98797.50;;;6.98;93.55
75317;BME280;63913;51.492;10.368;2024-03-22T02:57:39;98795.31;;;7.07;91.81
75317;BME280;63913;51.492;10.368;2024-03-22T03:00:05;98792.28;;;7.16;91.85
75317;BME280;63913;51.492;10.368;2024-03-22T03:02:30;98793.94;;;7.15;92.35
75317;BME280;63913;51.492;10.368;2024-03-22T03:04:56;98797.16;;;7.10;92.67
75317;BME280;63913;51.492;10.368;2024-03-22T03:07:24;98807.19;;;7.05;93.37
75317;BME280;63913;51.492;10.368;2024-03-22T03:09:49;98802.75;;;7.01;93.33
75317;BME280;63913;51.492;10.368;2024-03-22T03:12:14;98803.38;;;6.96;93.52
75317;BME280;63913;51.492;10.368;2024-03-22T03:14:40;98800.63;;;6.91;93.90
75317;BME280;63913;51.492;10.368;2024-03-22T03:17:05;98795.72;;;6.96;93.75
75317;BME280;63913;51.492;10.368;2024-03-22T03:19:30;98787.09;;;6.94;93.51
75317;BME280;63913;51.492;10.368;2024-03-22T03:21:56;98778.56;;;6.93;93.44
75317;BME280;63913;51.492;10.368;2024-03-22T03:24:21;98773.38;;;6.92;93.77
75317;BME280;63913;51.492;10.368;2024-03-22T03:26:46;98765.03;;;6.96;93.52
75317;BME280;63913;51.492;10.368;2024-03-22T03:29:12;98758.38;;;6.78;95.00
75317;BME280;63913;51.492;10.368;2024-03-22T03:31:37;98754.06;;;6.77;95.34
75317;BME280;63913;51.492;10.368;2024-03-22T03:34:02;98745.66;;;6.80;95.14
75317;BME280;63913;51.492;10.368;2024-03-22T03:36:28;98742.31;;;6.81;95.41
75317;BME280;63913;51.492;10.368;2024-03-22T03:38:53;98745.97;;;6.87;94.85
75317;BME280;63913;51.492;10.368;2024-03-22T03:41:18;98732.19;;;6.84;95.13
75317;BME280;63913;51.492;10.368;2024-03-22T03:43:44;98727.16;;;6.85;95.42
75317;BME280;63913;51.492;10.368;2024-03-22T03:46:09;98729.88;;;6.90;95.95
75317;BME280;63913;51.492;10.368;2024-03-22T03:48:34;98722.28;;;6.92;96.07
75317;BME280;63913;51.492;10.368;2024-03-22T03:51:00;98724.16;;;6.96;96.06
75317;BME280;63913;51.492;10.368;2024-03-22T03:53:29;98717.47;;;6.99;95.24
75317;BME280;63913;51.492;10.368;2024-03-22T03:55:54;98725.19;;;7.01;95.25
75317;BME280;63913;51.492;10.368;2024-03-22T03:58:19;98718.47;;;7.03;95.58
75317;BME280;63913;51.492;10.368;2024-03-22T04:00:45;98712.66;;;7.07;95.37
75317;BME280;63913;51.492;10.368;2024-03-22T04:03:10;98710.22;;;7.10;95.50
75317;BME280;63913;51.492;10.368;2024-03-22T04:05:35;98702.47;;;7.08;96.71
75317;BME280;63913;51.492;10.368;2024-03-22T04:08:01;98695.19;;;7.17;95.87
75317;BME280;63913;51.492;10.368;2024-03-22T04:10:26;98695.19;;;7.17;96.11
75317;BME280;63913;51.492;10.368;2024-03-22T04:12:51;98698.84;;;7.24;96.24
75317;BME280;63913;51.492;10.368;2024-03-22T04:15:17;98702.41;;;7.27;96.25
75317;BME280;63913;51.492;10.368;2024-03-22T04:17:42;98693.19;;;7.33;95.79
75317;BME280;63913;51.492;10.368;2024-03-22T04:20:08;98704.44;;;7.36;95.89
75317;BME280;63913;51.492;10.368;2024-03-22T04:22:34;98691.94;;;7.44;95.55
75317;BME280;63913;51.492;10.368;2024-03-22T04:24:59;98694.59;;;7.47;94.66
75317;BME280;63913;51.492;10.368;2024-03-22T04:27:25;98687.31;;;7.57;93.91
75317;BME280;63913;51.492;10.368;2024-03-22T04:29:50;98683.34;;;7.65;93.76
75317;BME280;63913;51.492;10.368;2024-03-22T04:32:15;98676.59;;;7.68;93.33
75317;BME280;63913;51.492;10.368;2024-03-22T04:34:44;98673.31;;;7.72;93.36
75317;BME280;63913;51.492;10.368;2024-03-22T04:37:09;98678.69;;;7.78;93.31
75317;BME280;63913;51.492;10.368;2024-03-22T04:39:37;98672.19;;;7.87;92.48
75317;BME280;63913;51.492;10.368;2024-03-22T04:42:02;98666.91;;;7.83;92.93
75317;BME280;63913;51.492;10.368;2024-03-22T04:44:28;98666.91;;;7.83;92.79
75317;BME280;63913;51.492;10.368;2024-03-22T04:46:54;98660.13;;;7.83;92.85
75317;BME280;63913;51.492;10.368;2024-03-22T04:49:19;98652.56;;;7.86;92.72
75317;BME280;63913;51.492;10.368;2024-03-22T04:51:44;98650.00;;;7.86;92.53
75317;BME280;63913;51.492;10.368;2024-03-22T04:54:10;98644.91;;;7.88;92.29
75317;BME280;63913;51.492;10.368;2024-03-22T04:56:35;98645.84;;;7.90;92.35
75317;BME280;63913;51.492;10.368;2024-03-22T04:59:00;98637.41;;;7.92;92.02
75317;BME280;63913;51.492;10.368;2024-03-22T05:01:26;98650.19;;;7.92;92.48
75317;BME280;63913;51.492;10.368;2024-03-22T05:03:51;98651.88;;;7.92;92.57
75317;BME280;63913;51.492;10.368;2024-03-22T05:06:17;98660.50;;;7.94;92.41
75317;BME280;63913;51.492;10.368;2024-03-22T05:08:42;98666.63;;;7.99;92.26
75317;BME280;63913;51.492;10.368;2024-03-22T05:11:08;98665.75;;;7.98;92.08
75317;BME280;63913;51.492;10.368;2024-03-22T05:13:33;98669.25;;;8.00;92.25
75317;BME280;63913;51.492;10.368;2024-03-22T05:15:58;98654.78;;;8.01;92.53
75317;BME280;63913;51.492;10.368;2024-03-22T05:18:24;98642.88;;;8.03;92.29
75317;BME280;63913;51.492;10.368;2024-03-22T05:20:49;98637.91;;;8.08;92.36
75317;BME280;63913;51.492;10.368;2024-03-22T05:23:14;98637.06;;;8.07;92.42
75317;BME280;63913;51.492;10.368;2024-03-22T05:25:42;98626.00;;;8.08;92.59
75317;BME280;63913;51.492;10.368;2024-03-22T05:28:07;98632.91;;;8.11;92.41
75317;BME280;63913;51.492;10.368;2024-03-22T05:30:33;98627.81;;;8.12;92.54
75317;BME280;63913;51.492;10.368;2024-03-22T05:32:58;98628.63;;;8.11;92.86
75317;BME280;63913;51.492;10.368;2024-03-22T05:35:24;98625.31;;;8.14;92.85
75317;BME280;63913;51.492;10.368;2024-03-22T05:37:49;98622.81;;;8.15;92.76
75317;BME280;63913;51.492;10.368;2024-03-22T05:40:15;98626.31;;;8.17;92.80
75317;BME280;63913;51.492;10.368;2024-03-22T05:42:41;98618.63;;;8.17;92.84
75317;BME280;63913;51.492;10.368;2024-03-22T05:45:07;98616.88;;;8.16;92.76
75317;BME280;63913;51.492;10.368;2024-03-22T05:47:33;98607.44;;;8.15;92.53
75317;BME280;63913;51.492;10.368;2024-03-22T05:49:59;98606.56;;;8.15;93.25
75317;BME280;63913;51.492;10.368;2024-03-22T05:52:25;98612.63;;;8.17;93.04
75317;BME280;63913;51.492;10.368;2024-03-22T05:54:50;98610.94;;;8.17;93.50
75317;BME280;63913;51.492;10.368;2024-03-22T05:57:16;98605.97;;;8.22;93.49
75317;BME280;63913;51.492;10.368;2024-03-22T05:59:42;98597.44;;;8.23;93.45
75317;BME280;63913;51.492;10.368;2024-03-22T06:02:07;98593.25;;;8.25;93.66
75317;BME280;63913;51.492;10.368;2024-03-22T06:04:33;98591.63;;;8.27;93.83
75317;BME280;63913;51.492;10.368;2024-03-22T06:06:59;98581.47;;;8.30;93.40
75317;BME280;63913;51.492;10.368;2024-03-22T06:09:28;98579.88;;;8.32;93.44
75317;BME280;63913;51.492;10.368;2024-03-22T06:12:03;98584.97;;;8.32;93.35
75317;BME280;63913;51.492;10.368;2024-03-22T06:14:29;98584.13;;;8.31;94.04
75317;BME280;63913;51.492;10.368;2024-03-22T06:16:54;98575.66;;;8.34;94.03
75317;BME280;63913;51.492;10.368;2024-03-22T06:19:20;98579.19;;;8.37;93.53
75317;BME280;63913;51.492;10.368;2024-03-22T06:21:45;98580.91;;;8.38;94.02
75317;BME280;63913;51.492;10.368;2024-03-22T06:24:10;98580.88;;;8.37;94.18
75317;BME280;63913;51.492;10.368;2024-03-22T06:26:35;98576.66;;;8.39;94.00
75317;BME280;63913;51.492;10.368;2024-03-22T06:29:01;98583.66;;;8.43;93.98
75317;BME280;63913;51.492;10.368;2024-03-22T06:31:26;98575.13;;;8.44;94.28
75317;BME280;63913;51.492;10.368;2024-03-22T06:33:52;98571.84;;;8.48;93.76
75317;BME280;63913;51.492;10.368;2024-03-22T06:36:18;98577.03;;;8.50;93.64
75317;BME280;63913;51.492;10.368;2024-03-22T06:38:44;98570.22;;;8.52;93.30
75317;BME280;63913;51.492;10.368;2024-03-22T06:41:09;98559.16;;;8.53;93.15
75317;BME280;63913;51.492;10.368;2024-03-22T06:43:34;98562.59;;;8.53;93.59
75317;BME280;63913;51.492;10.368;2024-03-22T06:46:00;98562.53;;;8.52;93.69
75317;BME280;63913;51.492;10.368;2024-03-22T06:48:25;98560.91;;;8.54;93.92
75317;BME280;63913;51.492;10.368;2024-03-22T06:50:50;98562.81;;;8.61;93.51
75317;BME280;63913;51.492;10.368;2024-03-22T06:53:15;98554.44;;;8.65;93.31
75317;BME280;63913;51.492;10.368;2024-03-22T06:55:41;98555.47;;;8.71;92.68
75317;BME280;63913;51.492;10.368;2024-03-22T06:58:06;98561.66;;;8.78;92.57
75317;BME280;63913;51.492;10.368;2024-03-22T07:00:32;98548.13;;;8.82;92.49
75317;BME280;63913;51.492;10.368;2024-03-22T07:03:00;98549.00;;;8.83;92.25
75317;BME280;63913;51.492;10.368;2024-03-22T07:05:27;98545.69;;;8.87;92.28
75317;BME280;63913;51.492;10.368;2024-03-22T07:07:53;98553.41;;;8.88;92.25
75317;BME280;63913;51.492;10.368;2024-03-22T07:10:21;98562.84;;;8.89;92.47
75317;BME280;63913;51.492;10.368;2024-03-22T07:12:47;98574.03;;;8.91;92.07
75317;BME280;63913;51.492;10.368;2024-03-22T07:15:13;98571.50;;;8.93;91.92
75317;BME280;63913;51.492;10.368;2024-03-22T07:17:38;98558.72;;;8.94;91.96
75317;BME280;63913;51.492;10.368;2024-03-22T07:20:04;98565.66;;;8.97;92.39
75317;BME280;63913;51.492;10.368;2024-03-22T07:22:29;98561.44;;;8.99;91.76
75317;BME280;63913;51.492;10.368;2024-03-22T07:24:55;98565.75;;;9.01;91.95
75317;BME280;63913;51.492;10.368;2024-03-22T07:27:20;98557.31;;;9.04;91.79
75317;BME280;63913;51.492;10.368;2024-03-22T07:29:46;98565.09;;;9.07;92.89
75317;BME280;63913;51.492;10.368;2024-03-22T07:32:11;98554.09;;;9.11;92.33
75317;BME280;63913;51.492;10.368;2024-03-22T07:34:36;98550.78;;;9.15;92.30
75317;BME280;63913;51.492;10.368;2024-03-22T07:37:02;98555.16;;;9.19;92.25
75317;BME280;63913;51.492;10.368;2024-03-22T07:39:29;98556.09;;;9.21;92.00
75317;BME280;63913;51.492;10.368;2024-03-22T07:41:54;98557.75;;;9.19;92.46
75317;BME280;63913;51.492;10.368;2024-03-22T07:44:20;98559.59;;;9.25;92.58
75317;BME280;63913;51.492;10.368;2024-03-22T07:46:46;98556.19;;;9.24;92.80
75317;BME280;63913;51.492;10.368;2024-03-22T07:49:12;98543.38;;;9.26;91.68
75317;BME280;63913;51.492;10.368;2024-03-22T07:51:38;98540.09;;;9.30;91.73
75317;BME280;63913;51.492;10.368;2024-03-22T07:54:03;98541.13;;;9.36;91.33
75317;BME280;63913;51.492;10.368;2024-03-22T07:56:28;98532.66;;;9.39;91.42
75317;BME280;63913;51.492;10.368;2024-03-22T07:58:54;98534.56;;;9.46;90.84
75317;BME280;63913;51.492;10.368;2024-03-22T08:01:21;98527.84;;;9.51;90.94
75317;BME280;63913;51.492;10.368;2024-03-22T08:03:46;98525.41;;;9.57;90.40
75317;BME280;63913;51.492;10.368;2024-03-22T08:06:11;98528.03;;;9.58;90.90
75317;BME280;63913;51.492;10.368;2024-03-22T08:08:37;98529.91;;;9.64;89.87
75317;BME280;63913;51.492;10.368;2024-03-22T08:11:02;98526.59;;;9.68;90.09
75317;BME280;63913;51.492;10.368;2024-03-22T08:13:27;98520.72;;;9.74;89.92
75317;BME280;63913;51.492;10.368;2024-03-22T08:15:53;98517.53;;;9.82;89.25
75317;BME280;63913;51.492;10.368;2024-03-22T08:18:19;98512.56;;;9.88;89.11
75317;BME280;63913;51.492;10.368;2024-03-22T08:20:44;98519.66;;;9.99;87.76
75317;BME280;63913;51.492;10.368;2024-03-22T08:23:09;98508.81;;;10.10;88.37
75317;BME280;63913;51.492;10.368;2024-03-22T08:25:35;98510.81;;;10.20;88.23
75317;BME280;63913;51.492;10.368;2024-03-22T08:28:02;98505.91;;;10.29;87.38
75317;BME280;63913;51.492;10.368;2024-03-22T08:30:27;98501.81;;;10.38;86.97
75317;BME280;63913;51.492;10.368;2024-03-22T08:32:53;98510.56;;;10.47;87.13
75317;BME280;63913;51.492;10.368;2024-03-22T08:35:18;98493.78;;;10.61;85.11
75317;BME280;63913;51.492;10.368;2024-03-22T08:37:43;98485.34;;;10.68;85.82
75317;BME280;63913;51.492;10.368;2024-03-22T08:40:09;98488.00;;;10.73;85.08
75317;BME280;63913;51.492;10.368;2024-03-22T08:42:36;98491.44;;;10.74;84.94
75317;BME280;63913;51.492;10.368;2024-03-22T08:45:01;98486.47;;;10.81;84.43
75317;BME280;63913;51.492;10.368;2024-03-22T08:47:26;98483.13;;;10.87;84.01
75317;BME280;63913;51.492;10.368;2024-03-22T08:49:52;98475.63;;;10.94;83.55
75317;BME280;63913;51.492;10.368;2024-03-22T08:52:17;98465.31;;;10.94;83.69
75317;BME280;63913;51.492;10.368;2024-03-22T08:54:42;98464.59;;;11.01;83.79
75317;BME280;63913;51.492;10.368;2024-03-22T08:57:08;98463.66;;;10.98;82.69
75317;BME280;63913;51.492;10.368;2024-03-22T08:59:33;98465.41;;;10.99;82.82
75317;BME280;63913;51.492;10.368;2024-03-22T09:02:00;98462.06;;;11.04;83.35
75317;BME280;63913;51.492;10.368;2024-03-22T09:04:26;98457.94;;;11.13;83.15
75317;BME280;63913;51.492;10.368;2024-03-22T09:06:51;98469.16;;;11.16;82.34
75317;BME280;63913;51.492;10.368;2024-03-22T09:09:16;98465.06;;;11.26;82.40
75317;BME280;63913;51.492;10.368;2024-03-22T09:11:42;98464.53;;;11.42;82.04
75317;BME280;63913;51.492;10.368;2024-03-22T09:14:08;98462.09;;;11.50;81.55
75317;BME280;63913;51.492;10.368;2024-03-22T09:16:33;98460.41;;;11.53;81.05
75317;BME280;63913;51.492;10.368;2024-03-22T09:18:58;98454.34;;;11.50;81.10
75317;BME280;63913;51.492;10.368;2024-03-22T09:21:24;98449.28;;;11.54;80.52
75317;BME280;63913;51.492;10.368;2024-03-22T09:23:50;98452.72;;;11.55;80.57
75317;BME280;63913;51.492;10.368;2024-03-22T09:26:15;98447.53;;;11.53;80.93
75317;BME280;63913;51.492;10.368;2024-03-22T09:28:40;98440.56;;;11.46;80.98
75317;BME280;63913;51.492;10.368;2024-03-22T09:31:07;98439.69;;;11.45;80.87
75317;BME280;63913;51.492;10.368;2024-03-22T09:33:33;98429.34;;;11.42;82.14
75317;BME280;63913;51.492;10.368;2024-03-22T09:35:59;98440.41;;;11.38;81.63
75317;BME280;63913;51.492;10.368;2024-03-22T09:38:24;98419.75;;;11.35;81.72
75317;BME280;63913;51.492;10.368;2024-03-22T09:40:50;98423.97;;;11.30;82.30
75317;BME280;63913;51.492;10.368;2024-03-22T09:43:19;98431.50;;;11.21;82.26
75317;BME280;63913;51.492;10.368;2024-03-22T09:45:45;98431.50;;;11.21;83.21
75317;BME280;63913;51.492;10.368;2024-03-22T09:48:12;98428.06;;;11.21;83.75
75317;BME280;63913;51.492;10.368;2024-03-22T09:50:38;98418.75;;;11.26;83.09
75317;BME280;63913;51.492;10.368;2024-03-22T09:53:05;98419.66;;;11.29;82.79
75317;BME280;63913;51.492;10.368;2024-03-22T09:55:34;98414.44;;;11.25;83.26
75317;BME280;63913;51.492;10.368;2024-03-22T09:58:01;98408.50;;;11.29;83.18
75317;BME280;63913;51.492;10.368;2024-03-22T10:00:27;98413.72;;;11.33;83.70
75317;BME280;63913;51.492;10.368;2024-03-22T10:02:53;98414.59;;;11.35;83.95
75317;BME280;63913;51.492;10.368;2024-03-22T10:05:19;98406.06;;;11.38;84.04
75317;BME280;63913;51.492;10.368;2024-03-22T10:07:44;98405.19;;;11.36;83.48
75317;BME280;63913;51.492;10.368;2024-03-22T10:10:10;98406.03;;;11.35;84.26
75317;BME280;63913;51.492;10.368;2024-03-22T10:12:36;98400.06;;;11.37;83.94
75317;BME280;63913;51.492;10.368;2024-03-22T10:15:02;98406.91;;;11.37;84.13
75317;BME280;63913;51.492;10.368;2024-03-22T10:17:28;98407.78;;;11.37;83.46
75317;BME280;63913;51.492;10.368;2024-03-22T10:19:53;98395.72;;;11.33;83.60
75317;BME280;63913;51.492;10.368;2024-03-22T10:22:19;98392.31;;;11.34;84.59
75317;BME280;63913;51.492;10.368;2024-03-22T10:24:44;98395.00;;;11.42;83.55
75317;BME280;63913;51.492;10.368;2024-03-22T10:27:10;98398.34;;;11.38;84.19
75317;BME280;63913;51.492;10.368;2024-03-22T10:29:36;98402.69;;;11.40;84.16
75317;BME280;63913;51.492;10.368;2024-03-22T10:32:01;98397.66;;;11.46;84.13
75317;BME280;63913;51.492;10.368;2024-03-22T10:34:28;98392.56;;;11.50;84.08
75317;BME280;63913;51.492;10.368;2024-03-22T10:36:55;98393.41;;;11.48;84.39
75317;BME280;63913;51.492;10.368;2024-03-22T10:39:22;98387.50;;;11.56;84.27
75317;BME280;63913;51.492;10.368;2024-03-22T10:41:48;98379.94;;;11.65;83.11
75317;BME280;63913;51.492;10.368;2024-03-22T10:44:14;98381.84;;;11.75;83.90
75317;BME280;63913;51.492;10.368;2024-03-22T10:46:45;98374.13;;;11.75;81.82
75317;BME280;63913;51.492;10.368;2024-03-22T10:49:18;98368.16;;;11.79;82.63
75317;BME280;63913;51.492;10.368;2024-03-22T10:52:06;98364.81;;;11.84;82.26
75317;BME280;63913;51.492;10.368;2024-03-22T10:54:35;98352.97;;;11.96;82.62
75317;BME280;63913;51.492;10.368;2024-03-22T10:57:04;98346.16;;;12.02;82.13
75317;BME280;63913;51.492;10.368;2024-03-22T10:59:33;98339.38;;;12.07;81.96
75317;BME280;63913;51.492;10.368;2024-03-22T11:02:03;98335.22;;;12.18;81.28
75317;BME280;63913;51.492;10.368;2024-03-22T11:04:30;98338.78;;;12.28;80.89
75317;BME280;63913;51.492;10.368;2024-03-22T11:06:56;98334.59;;;12.36;80.12
75317;BME280;63913;51.492;10.368;2024-03-22T11:09:26;98327.72;;;12.35;79.74
75317;BME280;63913;51.492;10.368;2024-03-22T11:11:53;98321.72;;;12.36;79.87
75317;BME280;63913;51.492;10.368;2024-03-22T11:14:19;98320.88;;;12.39;79.29
75317;BME280;63913;51.492;10.368;2024-03-22T11:16:51;98313.94;;;12.32;79.43
75317;BME280;63913;51.492;10.368;2024-03-22T11:19:18;98309.72;;;12.41;80.12
75317;BME280;63913;51.492;10.368;2024-03-22T11:21:43;98299.50;;;12.49;79.56
75317;BME280;63913;51.492;10.368;2024-03-22T11:24:08;98287.63;;;12.61;78.64
75317;BME280;63913;51.492;10.368;2024-03-22T11:26:35;98282.66;;;12.81;79.13
75317;BME280;63913;51.492;10.368;2024-03-22T11:29:00;98286.22;;;12.94;78.52
75317;BME280;63913;51.492;10.368;2024-03-22T11:31:27;98301.00;;;13.09;76.70
75317;BME280;63913;51.492;10.368;2024-03-22T11:33:53;98286.31;;;13.03;75.77
75317;BME280;63913;51.492;10.368;2024-03-22T11:36:19;98276.69;;;12.87;75.88
75317;BME280;63913;51.492;10.368;2024-03-22T11:38:44;98279.34;;;12.97;77.14
75317;BME280;63913;51.492;10.368;2024-03-22T11:41:10;98277.72;;;13.04;76.16
75317;BME280;63913;51.492;10.368;2024-03-22T11:43:36;98266.53;;;13.04;74.93
75317;BME280;63913;51.492;10.368;2024-03-22T11:46:02;98266.47;;;12.99;74.84
75317;BME280;63913;51.492;10.368;2024-03-22T11:48:27;98263.09;;;13.05;76.32
75317;BME280;63913;51.492;10.368;2024-03-22T11:50:53;98264.88;;;13.10;75.43
75317;BME280;63913;51.492;10.368;2024-03-22T11:53:18;98257.09;;;13.07;75.03
75317;BME280;63913;51.492;10.368;2024-03-22T11:55:44;98262.22;;;13.06;75.44
75317;BME280;63913;51.492;10.368;2024-03-22T11:58:09;98253.63;;;13.04;75.08
75317;BME280;63913;51.492;10.368;2024-03-22T12:00:36;98253.63;;;13.04;74.65
75317;BME280;63913;51.492;10.368;2024-03-22T12:03:04;98244.09;;;12.95;75.39
75317;BME280;63913;51.492;10.368;2024-03-22T12:05:31;98242.38;;;12.95;74.72
75317;BME280;63913;51.492;10.368;2024-03-22T12:07:57;98246.72;;;13.01;75.99
75317;BME280;63913;51.492;10.368;2024-03-22T12:10:22;98232.06;;;13.00;75.68
75317;BME280;63913;51.492;10.368;2024-03-22T12:12:48;98236.44;;;13.04;75.17
75317;BME280;63913;51.492;10.368;2024-03-22T12:15:13;98232.13;;;13.03;74.17
75317;BME280;63913;51.492;10.368;2024-03-22T12:17:38;98221.78;;;13.06;74.69
75317;BME280;63913;51.492;10.368;2024-03-22T12:20:06;98226.03;;;12.95;73.97
75317;BME280;63913;51.492;10.368;2024-03-22T12:22:34;98218.31;;;12.99;74.62
75317;BME280;63913;51.492;10.368;2024-03-22T12:24:59;98223.50;;;13.06;74.78
75317;BME280;63913;51.492;10.368;2024-03-22T12:27:24;98218.38;;;13.07;74.83
75317;BME280;63913;51.492;10.368;2024-03-22T12:29:50;98213.22;;;13.07;74.61
75317;BME280;63913;51.492;10.368;2024-03-22T12:32:15;98209.75;;;13.07;75.96
75317;BME280;63913;51.492;10.368;2024-03-22T12:34:41;98204.59;;;13.05;75.88
75317;BME280;63913;51.492;10.368;2024-03-22T12:37:06;98201.16;;;13.08;74.44
75317;BME280;63913;51.492;10.368;2024-03-22T12:39:32;98193.41;;;13.06;74.29
75317;BME280;63913;51.492;10.368;2024-03-22T12:41:57;98195.16;;;13.09;74.08
75317;BME280;63913;51.492;10.368;2024-03-22T12:44:23;98190.00;;;13.09;73.57
75317;BME280;63913;51.492;10.368;2024-03-22T12:46:48;98183.94;;;13.07;73.76
75317;BME280;63913;51.492;10.368;2024-03-22T12:49:16;98193.41;;;13.03;73.67